sensor_id;sensor_type;location;lat;lon;timestamp;temperature;humidity
12632;DHT22;6381;45.748;12.106;2024-03-08T00:00:04;9.80;99.90
12632;DHT22;6381;45.748;12.106;2024-03-08T00:02:40;9.80;99.90
12632;DHT22;6381;45.748;12.106;2024-03-08T00:05:11;9.80;99.90
12632;DHT22;6381;45.748;12.106;2024-03-08T00:07:44;9.80;99.90
12632;DHT22;6381;45.748;12.106;2024-03-08T00:10:14;9.90;99.90
12632;DHT22;6381;45.748;12.106;2024-03-08T00:12:46;9.70;99.90
12632;DHT22;6381;45.748;12.106;2024-03-08T00:15:17;9.80;99.90
12632;DHT22;6381;45.748;12.106;2024-03-08T00:17:47;9.90;99.90
12632;DHT22;6381;45.748;12.106;2024-03-08T00:20:18;9.60;99.90
12632;DHT22;6381;45.748;12.106;2024-03-08T00:22:47;9.60;99.90
12632;DHT22;6381;45.748;12.106;2024-03-08T00:25:17;9.60;99.90
12632;DHT22;6381;45.748;12.106;2024-03-08T00:27:51;9.80;99.90
12632;DHT22;6381;45.748;12.106;2024-03-08T00:30:24;9.80;99.90
12632;DHT22;6381;45.748;12.106;2024-03-08T00:32:54;9.80;99.90
12632;DHT22;6381;45.748;12.106;2024-03-08T00:35:24;9.60;99.90
12632;DHT22;6381;45.748;12.106;2024-03-08T00:37:54;9.80;99.90
12632;DHT22;6381;45.748;12.106;2024-03-08T00:40:24;9.80;99.90
12632;DHT22;6381;45.748;12.106;2024-03-08T00:42:56;9.60;99.90
12632;DHT22;6381;45.748;12.106;2024-03-08T00:45:26;9.60;99.90
12632;DHT22;6381;45.748;12.106;2024-03-08T00:47:56;9.60;99.90
12632;DHT22;6381;45.748;12.106;2024-03-08T00:50:26;9.60;99.90
12632;DHT22;6381;45.748;12.106;2024-03-08T00:52:56;9.50;99.90
12632;DHT22;6381;45.748;12.106;2024-03-08T00:55:26;9.50;99.90
12632;DHT22;6381;45.748;12.106;2024-03-08T00:57:59;9.60;99.90
12632;DHT22;6381;45.748;12.106;2024-03-08T01:00:29;9.60;99.90
12632;DHT22;6381;45.748;12.106;2024-03-08T01:02:59;9.50;99.90
12632;DHT22;6381;45.748;12.106;2024-03-08T01:05:29;9.60;99.90
12632;DHT22;6381;45.748;12.106;2024-03-08T01:07:59;9.50;99.90
12632;DHT22;6381;45.748;12.106;2024-03-08T01:10:31;9.60;99.90
12632;DHT22;6381;45.748;12.106;2024-03-08T01:13:02;9.50;99.90
12632;DHT22;6381;45.748;12.106;2024-03-08T01:15:31;9.30;99.90
12632;DHT22;6381;45.748;12.106;2024-03-08T01:18:01;9.30;99.90
12632;DHT22;6381;45.748;12.106;2024-03-08T01:20:32;9.30;99.90
12632;DHT22;6381;45.748;12.106;2024-03-08T01:23:01;9.40;99.90
12632;DHT22;6381;45.748;12.106;2024-03-08T01:25:33;9.30;99.90
12632;DHT22;6381;45.748;12.106;2024-03-08T01:28:05;9.40;99.90
12632;DHT22;6381;45.748;12.106;2024-03-08T01:30:35;9.20;99.90
12632;DHT22;6381;45.748;12.106;2024-03-08T01:33:06;9.20;99.90
12632;DHT22;6381;45.748;12.106;2024-03-08T01:35:36;9.40;99.90
12632;DHT22;6381;45.748;12.106;2024-03-08T01:38:09;9.20;99.90
12632;DHT22;6381;45.748;12.106;2024-03-08T01:40:39;9.20;99.90
12632;DHT22;6381;45.748;12.106;2024-03-08T01:43:19;9.10;99.90
12632;DHT22;6381;45.748;12.106;2024-03-08T01:45:49;9.20;99.90
12632;DHT22;6381;45.748;12.106;2024-03-08T01:48:19;9.20;99.90
12632;DHT22;6381;45.748;12.106;2024-03-08T01:50:53;9.10;99.90
12632;DHT22;6381;45.748;12.106;2024-03-08T01:53:24;9.20;99.90
12632;DHT22;6381;45.748;12.106;2024-03-08T01:55:57;8.90;99.90
12632;DHT22;6381;45.748;12.106;2024-03-08T01:58:29;9.10;99.90
12632;DHT22;6381;45.748;12.106;2024-03-08T02:01:01;8.90;99.90
12632;DHT22;6381;45.748;12.106;2024-03-08T02:03:32;9.10;99.90
12632;DHT22;6381;45.748;12.106;2024-03-08T02:06:02;9.10;99.90
12632;DHT22;6381;45.748;12.106;2024-03-08T02:08:33;9.10;99.90
12632;DHT22;6381;45.748;12.106;2024-03-08T02:11:04;8.90;99.90
12632;DHT22;6381;45.748;12.106;2024-03-08T02:13:36;8.90;99.90
12632;DHT22;6381;45.748;12.106;2024-03-08T02:16:06;8.90;99.90
12632;DHT22;6381;45.748;12.106;2024-03-08T02:18:37;8.80;99.90
12632;DHT22;6381;45.748;12.106;2024-03-08T02:21:09;8.80;99.90
12632;DHT22;6381;45.748;12.106;2024-03-08T02:23:40;8.80;99.90
12632;DHT22;6381;45.748;12.106;2024-03-08T02:26:10;8.80;99.90
12632;DHT22;6381;45.748;12.106;2024-03-08T02:28:40;8.80;99.90
12632;DHT22;6381;45.748;12.106;2024-03-08T02:31:11;8.60;99.90
12632;DHT22;6381;45.748;12.106;2024-03-08T02:33:41;8.80;99.90
12632;DHT22;6381;45.748;12.106;2024-03-08T02:36:12;8.80;99.90
12632;DHT22;6381;45.748;12.106;2024-03-08T02:38:42;8.90;99.90
12632;DHT22;6381;45.748;12.106;2024-03-08T02:41:12;8.60;99.90
12632;DHT22;6381;45.748;12.106;2024-03-08T02:43:42;8.80;99.90
12632;DHT22;6381;45.748;12.106;2024-03-08T02:46:13;8.80;99.90
12632;DHT22;6381;45.748;12.106;2024-03-08T02:48:43;8.80;99.90
12632;DHT22;6381;45.748;12.106;2024-03-08T02:51:16;8.70;99.90
12632;DHT22;6381;45.748;12.106;2024-03-08T02:53:46;8.90;99.90
12632;DHT22;6381;45.748;12.106;2024-03-08T02:56:19;8.80;99.90
12632;DHT22;6381;45.748;12.106;2024-03-08T02:58:50;8.70;99.90
12632;DHT22;6381;45.748;12.106;2024-03-08T03:01:19;8.80;99.90
12632;DHT22;6381;45.748;12.106;2024-03-08T03:03:50;8.60;99.90
12632;DHT22;6381;45.748;12.106;2024-03-08T03:06:21;8.80;99.90
12632;DHT22;6381;45.748;12.106;2024-03-08T03:08:51;8.60;99.90
12632;DHT22;6381;45.748;12.106;2024-03-08T03:11:21;8.50;99.90
12632;DHT22;6381;45.748;12.106;2024-03-08T03:13:52;8.50;99.90
12632;DHT22;6381;45.748;12.106;2024-03-08T03:16:22;8.60;99.90
12632;DHT22;6381;45.748;12.106;2024-03-08T03:18:52;8.50;99.90
12632;DHT22;6381;45.748;12.106;2024-03-08T03:21:23;8.50;99.90
12632;DHT22;6381;45.748;12.106;2024-03-08T03:23:53;8.40;99.90
12632;DHT22;6381;45.748;12.106;2024-03-08T03:26:23;8.40;99.90
12632;DHT22;6381;45.748;12.106;2024-03-08T03:28:54;8.40;99.90
12632;DHT22;6381;45.748;12.106;2024-03-08T03:31:25;8.30;99.90
12632;DHT22;6381;45.748;12.106;2024-03-08T03:33:55;8.30;99.90
12632;DHT22;6381;45.748;12.106;2024-03-08T03:36:31;8.20;99.90
12632;DHT22;6381;45.748;12.106;2024-03-08T03:39:01;8.40;99.90
12632;DHT22;6381;45.748;12.106;2024-03-08T03:41:38;8.40;99.90
12632;DHT22;6381;45.748;12.106;2024-03-08T03:44:08;8.40;99.90
12632;DHT22;6381;45.748;12.106;2024-03-08T03:46:42;8.40;99.90
12632;DHT22;6381;45.748;12.106;2024-03-08T03:49:13;8.40;99.90
12632;DHT22;6381;45.748;12.106;2024-03-08T03:51:45;8.40;99.90
12632;DHT22;6381;45.748;12.106;2024-03-08T03:54:15;8.20;99.90
12632;DHT22;6381;45.748;12.106;2024-03-08T03:56:45;8.30;99.90
12632;DHT22;6381;45.748;12.106;2024-03-08T03:59:14;8.20;99.90
12632;DHT22;6381;45.748;12.106;2024-03-08T04:01:44;8.10;99.90
12632;DHT22;6381;45.748;12.106;2024-03-08T04:04:15;8.10;99.90
12632;DHT22;6381;45.748;12.106;2024-03-08T04:06:47;8.40;99.90
12632;DHT22;6381;45.748;12.106;2024-03-08T04:09:20;8.30;99.90
12632;DHT22;6381;45.748;12.106;2024-03-08T04:11:50;8.30;99.90
12632;DHT22;6381;45.748;12.106;2024-03-08T04:14:22;8.20;99.90
12632;DHT22;6381;45.748;12.106;2024-03-08T04:16:53;8.40;99.90
12632;DHT22;6381;45.748;12.106;2024-03-08T04:19:23;8.50;99.90
12632;DHT22;6381;45.748;12.106;2024-03-08T04:21:56;8.30;99.90
12632;DHT22;6381;45.748;12.106;2024-03-08T04:24:26;8.40;99.90
12632;DHT22;6381;45.748;12.106;2024-03-08T04:26:57;8.10;99.90
12632;DHT22;6381;45.748;12.106;2024-03-08T04:29:27;8.30;99.90
12632;DHT22;6381;45.748;12.106;2024-03-08T04:31:57;8.20;99.90
12632;DHT22;6381;45.748;12.106;2024-03-08T04:34:26;8.40;99.90
12632;DHT22;6381;45.748;12.106;2024-03-08T04:36:59;8.20;99.90
12632;DHT22;6381;45.748;12.106;2024-03-08T04:39:29;8.20;99.90
12632;DHT22;6381;45.748;12.106;2024-03-08T04:42:01;8.20;99.90
12632;DHT22;6381;45.748;12.106;2024-03-08T04:44:33;8.10;99.90
12632;DHT22;6381;45.748;12.106;2024-03-08T04:47:03;8.40;99.90
12632;DHT22;6381;45.748;12.106;2024-03-08T04:49:34;8.30;99.90
12632;DHT22;6381;45.748;12.106;2024-03-08T04:52:06;8.10;99.90
12632;DHT22;6381;45.748;12.106;2024-03-08T04:54:36;8.10;99.90
12632;DHT22;6381;45.748;12.106;2024-03-08T04:57:06;8.30;99.90
12632;DHT22;6381;45.748;12.106;2024-03-08T04:59:36;8.40;99.90
12632;DHT22;6381;45.748;12.106;2024-03-08T05:02:07;8.10;99.90
12632;DHT22;6381;45.748;12.106;2024-03-08T05:04:37;8.30;99.90
12632;DHT22;6381;45.748;12.106;2024-03-08T05:07:08;8.40;99.90
12632;DHT22;6381;45.748;12.106;2024-03-08T05:09:38;8.30;99.90
12632;DHT22;6381;45.748;12.106;2024-03-08T05:12:09;8.40;99.90
12632;DHT22;6381;45.748;12.106;2024-03-08T05:14:39;8.10;99.90
12632;DHT22;6381;45.748;12.106;2024-03-08T05:17:09;8.40;99.90
12632;DHT22;6381;45.748;12.106;2024-03-08T05:19:39;8.40;99.90
12632;DHT22;6381;45.748;12.106;2024-03-08T05:22:11;8.20;99.90
12632;DHT22;6381;45.748;12.106;2024-03-08T05:24:41;8.20;99.90
12632;DHT22;6381;45.748;12.106;2024-03-08T05:27:12;8.10;99.90
12632;DHT22;6381;45.748;12.106;2024-03-08T05:29:42;8.20;99.90
12632;DHT22;6381;45.748;12.106;2024-03-08T05:32:12;8.40;99.90
12632;DHT22;6381;45.748;12.106;2024-03-08T05:34:42;8.40;99.90
12632;DHT22;6381;45.748;12.106;2024-03-08T05:37:14;8.40;99.90
12632;DHT22;6381;45.748;12.106;2024-03-08T05:39:44;8.30;99.90
12632;DHT22;6381;45.748;12.106;2024-03-08T05:42:14;8.20;99.90
12632;DHT22;6381;45.748;12.106;2024-03-08T05:44:44;8.20;99.90
12632;DHT22;6381;45.748;12.106;2024-03-08T05:47:13;8.30;99.90
12632;DHT22;6381;45.748;12.106;2024-03-08T05:49:44;8.50;99.90
12632;DHT22;6381;45.748;12.106;2024-03-08T05:52:15;8.40;99.90
12632;DHT22;6381;45.748;12.106;2024-03-08T05:54:53;8.20;99.90
12632;DHT22;6381;45.748;12.106;2024-03-08T05:57:23;8.50;99.90
12632;DHT22;6381;45.748;12.106;2024-03-08T05:59:53;8.40;99.90
12632;DHT22;6381;45.748;12.106;2024-03-08T06:02:23;8.50;99.90
12632;DHT22;6381;45.748;12.106;2024-03-08T06:04:53;8.50;99.90
12632;DHT22;6381;45.748;12.106;2024-03-08T06:07:24;8.50;99.90
12632;DHT22;6381;45.748;12.106;2024-03-08T06:09:54;8.50;99.90
12632;DHT22;6381;45.748;12.106;2024-03-08T06:12:25;8.50;99.90
12632;DHT22;6381;45.748;12.106;2024-03-08T06:14:57;8.40;99.90
12632;DHT22;6381;45.748;12.106;2024-03-08T06:17:27;8.40;99.90
12632;DHT22;6381;45.748;12.106;2024-03-08T06:19:57;8.40;99.90
12632;DHT22;6381;45.748;12.106;2024-03-08T06:22:28;8.60;99.90
12632;DHT22;6381;45.748;12.106;2024-03-08T06:24:58;8.50;99.90
12632;DHT22;6381;45.748;12.106;2024-03-08T06:27:30;8.50;99.90
12632;DHT22;6381;45.748;12.106;2024-03-08T06:30:02;8.50;99.90
12632;DHT22;6381;45.748;12.106;2024-03-08T06:32:33;8.50;99.90
12632;DHT22;6381;45.748;12.106;2024-03-08T06:35:04;8.50;99.90
12632;DHT22;6381;45.748;12.106;2024-03-08T06:37:36;8.50;99.90
12632;DHT22;6381;45.748;12.106;2024-03-08T06:40:08;8.50;99.90
12632;DHT22;6381;45.748;12.106;2024-03-08T06:42:43;8.60;99.90
12632;DHT22;6381;45.748;12.106;2024-03-08T06:45:13;8.40;99.90
12632;DHT22;6381;45.748;12.106;2024-03-08T06:47:47;8.40;99.90
12632;DHT22;6381;45.748;12.106;2024-03-08T06:50:19;8.50;99.90
12632;DHT22;6381;45.748;12.106;2024-03-08T06:52:51;8.50;99.90
12632;DHT22;6381;45.748;12.106;2024-03-08T06:55:22;8.50;99.90
12632;DHT22;6381;45.748;12.106;2024-03-08T06:57:51;8.40;99.90
12632;DHT22;6381;45.748;12.106;2024-03-08T07:00:24;8.20;99.90
12632;DHT22;6381;45.748;12.106;2024-03-08T07:02:58;8.00;99.90
12632;DHT22;6381;45.748;12.106;2024-03-08T07:05:29;8.10;99.90
12632;DHT22;6381;45.748;12.106;2024-03-08T07:08:02;8.10;99.90
12632;DHT22;6381;45.748;12.106;2024-03-08T07:10:34;7.90;99.90
12632;DHT22;6381;45.748;12.106;2024-03-08T07:13:06;8.10;99.90
12632;DHT22;6381;45.748;12.106;2024-03-08T07:15:36;7.90;99.90
12632;DHT22;6381;45.748;12.106;2024-03-08T07:18:06;7.80;99.90
12632;DHT22;6381;45.748;12.106;2024-03-08T07:20:37;7.90;99.90
12632;DHT22;6381;45.748;12.106;2024-03-08T07:23:08;7.80;99.90
12632;DHT22;6381;45.748;12.106;2024-03-08T07:25:38;7.90;99.90
12632;DHT22;6381;45.748;12.106;2024-03-08T07:28:12;7.80;99.90
12632;DHT22;6381;45.748;12.106;2024-03-08T07:30:42;7.80;99.90
12632;DHT22;6381;45.748;12.106;2024-03-08T07:33:36;7.90;99.90
12632;DHT22;6381;45.748;12.106;2024-03-08T07:36:06;8.00;99.90
12632;DHT22;6381;45.748;12.106;2024-03-08T07:38:39;7.90;99.90
12632;DHT22;6381;45.748;12.106;2024-03-08T07:41:09;8.10;99.90
12632;DHT22;6381;45.748;12.106;2024-03-08T07:43:42;8.00;99.90
12632;DHT22;6381;45.748;12.106;2024-03-08T07:46:12;7.80;99.90
12632;DHT22;6381;45.748;12.106;2024-03-08T07:48:42;7.70;99.90
12632;DHT22;6381;45.748;12.106;2024-03-08T07:51:13;7.80;99.90
12632;DHT22;6381;45.748;12.106;2024-03-08T07:53:47;7.70;99.90
12632;DHT22;6381;45.748;12.106;2024-03-08T07:56:17;7.70;99.90
12632;DHT22;6381;45.748;12.106;2024-03-08T07:58:47;8.00;99.90
12632;DHT22;6381;45.748;12.106;2024-03-08T08:01:17;7.80;99.90
12632;DHT22;6381;45.748;12.106;2024-03-08T08:03:47;7.80;99.90
12632;DHT22;6381;45.748;12.106;2024-03-08T08:06:18;7.80;99.90
12632;DHT22;6381;45.748;12.106;2024-03-08T08:08:49;8.00;99.90
12632;DHT22;6381;45.748;12.106;2024-03-08T08:11:19;7.80;99.90
12632;DHT22;6381;45.748;12.106;2024-03-08T08:13:49;7.50;99.90
12632;DHT22;6381;45.748;12.106;2024-03-08T08:16:19;7.80;99.90
12632;DHT22;6381;45.748;12.106;2024-03-08T08:18:49;7.80;99.90
12632;DHT22;6381;45.748;12.106;2024-03-08T08:21:20;7.50;99.90
12632;DHT22;6381;45.748;12.106;2024-03-08T08:23:52;7.60;99.90
12632;DHT22;6381;45.748;12.106;2024-03-08T08:26:23;7.60;99.90
12632;DHT22;6381;45.748;12.106;2024-03-08T08:28:54;7.50;99.90
12632;DHT22;6381;45.748;12.106;2024-03-08T08:31:24;7.50;99.90
12632;DHT22;6381;45.748;12.106;2024-03-08T08:33:56;7.70;99.90
12632;DHT22;6381;45.748;12.106;2024-03-08T08:36:27;7.70;99.90
12632;DHT22;6381;45.748;12.106;2024-03-08T08:39:01;7.50;99.90
12632;DHT22;6381;45.748;12.106;2024-03-08T08:41:31;7.50;99.90
12632;DHT22;6381;45.748;12.106;2024-03-08T08:44:01;7.50;99.90
12632;DHT22;6381;45.748;12.106;2024-03-08T08:46:34;7.50;99.90
12632;DHT22;6381;45.748;12.106;2024-03-08T08:49:08;7.50;99.90
12632;DHT22;6381;45.748;12.106;2024-03-08T08:51:39;7.60;99.90
12632;DHT22;6381;45.748;12.106;2024-03-08T08:54:10;7.40;99.90
12632;DHT22;6381;45.748;12.106;2024-03-08T08:56:45;7.00;99.90
12632;DHT22;6381;45.748;12.106;2024-03-08T08:59:15;7.50;99.90
12632;DHT22;6381;45.748;12.106;2024-03-08T09:01:50;7.50;99.90
12632;DHT22;6381;45.748;12.106;2024-03-08T09:04:21;7.50;99.90
12632;DHT22;6381;45.748;12.106;2024-03-08T09:06:52;7.50;99.90
12632;DHT22;6381;45.748;12.106;2024-03-08T09:09:24;7.40;99.90
12632;DHT22;6381;45.748;12.106;2024-03-08T09:11:55;7.50;99.90
12632;DHT22;6381;45.748;12.106;2024-03-08T09:14:24;7.50;99.90
12632;DHT22;6381;45.748;12.106;2024-03-08T09:16:55;7.50;99.90
12632;DHT22;6381;45.748;12.106;2024-03-08T09:19:25;7.70;99.90
12632;DHT22;6381;45.748;12.106;2024-03-08T09:21:56;7.70;99.90
12632;DHT22;6381;45.748;12.106;2024-03-08T09:24:28;7.60;99.90
12632;DHT22;6381;45.748;12.106;2024-03-08T09:26:58;7.50;99.90
12632;DHT22;6381;45.748;12.106;2024-03-08T09:29:28;7.70;99.90
12632;DHT22;6381;45.748;12.106;2024-03-08T09:31:58;7.50;99.90
12632;DHT22;6381;45.748;12.106;2024-03-08T09:34:27;7.50;99.90
12632;DHT22;6381;45.748;12.106;2024-03-08T09:37:05;7.80;99.90
12632;DHT22;6381;45.748;12.106;2024-03-08T09:39:38;7.80;99.90
12632;DHT22;6381;45.748;12.106;2024-03-08T09:42:08;7.80;99.90
12632;DHT22;6381;45.748;12.106;2024-03-08T09:44:39;7.70;99.90
12632;DHT22;6381;45.748;12.106;2024-03-08T09:47:10;7.70;99.90
12632;DHT22;6381;45.748;12.106;2024-03-08T09:49:42;7.50;99.90
12632;DHT22;6381;45.748;12.106;2024-03-08T09:52:12;7.40;99.90
12632;DHT22;6381;45.748;12.106;2024-03-08T09:54:45;7.50;99.90
12632;DHT22;6381;45.748;12.106;2024-03-08T09:57:15;7.70;99.90
12632;DHT22;6381;45.748;12.106;2024-03-08T09:59:47;7.70;99.90
12632;DHT22;6381;45.748;12.106;2024-03-08T10:02:18;7.50;99.90
12632;DHT22;6381;45.748;12.106;2024-03-08T10:04:51;7.40;99.90
12632;DHT22;6381;45.748;12.106;2024-03-08T10:07:21;7.50;99.90
12632;DHT22;6381;45.748;12.106;2024-03-08T10:09:54;7.70;99.90
12632;DHT22;6381;45.748;12.106;2024-03-08T10:12:25;7.20;99.90
12632;DHT22;6381;45.748;12.106;2024-03-08T10:14:55;7.50;99.90
12632;DHT22;6381;45.748;12.106;2024-03-08T10:17:26;7.50;99.90
12632;DHT22;6381;45.748;12.106;2024-03-08T10:20:01;7.40;99.90
12632;DHT22;6381;45.748;12.106;2024-03-08T10:22:43;7.50;99.90
12632;DHT22;6381;45.748;12.106;2024-03-08T10:25:31;7.70;99.90
12632;DHT22;6381;45.748;12.106;2024-03-08T10:28:04;7.80;99.90
12632;DHT22;6381;45.748;12.106;2024-03-08T10:30:35;7.80;99.90
12632;DHT22;6381;45.748;12.106;2024-03-08T10:33:06;7.70;99.90
12632;DHT22;6381;45.748;12.106;2024-03-08T10:35:36;7.70;99.90
12632;DHT22;6381;45.748;12.106;2024-03-08T10:38:07;7.70;99.90
12632;DHT22;6381;45.748;12.106;2024-03-08T10:40:41;7.80;99.90
12632;DHT22;6381;45.748;12.106;2024-03-08T10:43:16;7.80;99.90
12632;DHT22;6381;45.748;12.106;2024-03-08T10:46:01;7.80;99.90
12632;DHT22;6381;45.748;12.106;2024-03-08T10:48:36;7.50;99.90
12632;DHT22;6381;45.748;12.106;2024-03-08T10:51:11;7.60;99.90
12632;DHT22;6381;45.748;12.106;2024-03-08T10:53:43;7.50;99.90
12632;DHT22;6381;45.748;12.106;2024-03-08T10:56:15;7.50;99.90
12632;DHT22;6381;45.748;12.106;2024-03-08T10:58:46;7.70;99.90
12632;DHT22;6381;45.748;12.106;2024-03-08T11:01:21;7.70;99.90
12632;DHT22;6381;45.748;12.106;2024-03-08T11:03:52;7.60;99.90
12632;DHT22;6381;45.748;12.106;2024-03-08T11:06:31;7.50;99.90
12632;DHT22;6381;45.748;12.106;2024-03-08T11:09:28;7.50;99.90
12632;DHT22;6381;45.748;12.106;2024-03-08T11:12:20;7.50;99.90
12632;DHT22;6381;45.748;12.106;2024-03-08T11:14:54;7.50;99.90
12632;DHT22;6381;45.748;12.106;2024-03-08T11:17:46;7.50;99.90
12632;DHT22;6381;45.748;12.106;2024-03-08T11:20:18;7.70;99.90
12632;DHT22;6381;45.748;12.106;2024-03-08T11:22:50;7.80;99.90
12632;DHT22;6381;45.748;12.106;2024-03-08T11:25:34;7.80;99.90
12632;DHT22;6381;45.748;12.106;2024-03-08T11:28:17;7.90;99.90
12632;DHT22;6381;45.748;12.106;2024-03-08T11:31:23;7.60;99.90
12632;DHT22;6381;45.748;12.106;2024-03-08T11:33:55;7.60;99.90
12632;DHT22;6381;45.748;12.106;2024-03-08T11:36:25;7.80;99.90
12632;DHT22;6381;45.748;12.106;2024-03-08T11:38:58;7.80;99.90
12632;DHT22;6381;45.748;12.106;2024-03-08T11:41:37;7.60;99.90
12632;DHT22;6381;45.748;12.106;2024-03-08T11:44:11;7.80;99.90
12632;DHT22;6381;45.748;12.106;2024-03-08T11:46:44;7.80;99.90
12632;DHT22;6381;45.748;12.106;2024-03-08T11:49:16;7.60;99.90
12632;DHT22;6381;45.748;12.106;2024-03-08T11:51:52;8.00;99.90
12632;DHT22;6381;45.748;12.106;2024-03-08T11:54:28;7.80;99.90
12632;DHT22;6381;45.748;12.106;2024-03-08T11:57:01;7.70;99.90
12632;DHT22;6381;45.748;12.106;2024-03-08T11:59:51;7.60;99.90
12632;DHT22;6381;45.748;12.106;2024-03-08T12:02:26;7.80;99.90
12632;DHT22;6381;45.748;12.106;2024-03-08T12:05:00;8.10;99.90
12632;DHT22;6381;45.748;12.106;2024-03-08T12:07:43;7.90;99.90
12632;DHT22;6381;45.748;12.106;2024-03-08T12:10:16;7.80;99.90
12632;DHT22;6381;45.748;12.106;2024-03-08T12:12:50;7.80;99.90
12632;DHT22;6381;45.748;12.106;2024-03-08T12:15:25;8.00;99.90
12632;DHT22;6381;45.748;12.106;2024-03-08T12:17:56;8.00;99.90
12632;DHT22;6381;45.748;12.106;2024-03-08T12:20:27;8.00;99.90
12632;DHT22;6381;45.748;12.106;2024-03-08T12:22:59;7.90;99.90
12632;DHT22;6381;45.748;12.106;2024-03-08T12:25:31;8.00;99.90
12632;DHT22;6381;45.748;12.106;2024-03-08T12:28:12;7.60;99.90
12632;DHT22;6381;45.748;12.106;2024-03-08T12:30:48;7.90;99.90
12632;DHT22;6381;45.748;12.106;2024-03-08T12:33:24;7.90;99.90
12632;DHT22;6381;45.748;12.106;2024-03-08T12:35:57;7.90;99.90
12632;DHT22;6381;45.748;12.106;2024-03-08T12:38:29;7.80;99.90
12632;DHT22;6381;45.748;12.106;2024-03-08T12:41:02;7.80;99.90
12632;DHT22;6381;45.748;12.106;2024-03-08T12:43:33;7.80;99.90
12632;DHT22;6381;45.748;12.106;2024-03-08T12:46:08;7.80;99.90
12632;DHT22;6381;45.748;12.106;2024-03-08T12:48:46;7.80;99.90
12632;DHT22;6381;45.748;12.106;2024-03-08T12:51:27;7.90;99.90
12632;DHT22;6381;45.748;12.106;2024-03-08T12:53:58;7.80;99.90
12632;DHT22;6381;45.748;12.106;2024-03-08T12:56:33;7.80;99.90
12632;DHT22;6381;45.748;12.106;2024-03-08T12:59:07;7.80;99.90
12632;DHT22;6381;45.748;12.106;2024-03-08T13:01:43;7.80;99.90
12632;DHT22;6381;45.748;12.106;2024-03-08T13:04:14;7.90;99.90
12632;DHT22;6381;45.748;12.106;2024-03-08T13:06:44;7.90;99.90
12632;DHT22;6381;45.748;12.106;2024-03-08T13:09:22;7.80;99.90
12632;DHT22;6381;45.748;12.106;2024-03-08T13:12:01;7.70;99.90
12632;DHT22;6381;45.748;12.106;2024-03-08T13:14:31;7.80;99.90
12632;DHT22;6381;45.748;12.106;2024-03-08T13:17:05;7.80;99.90
12632;DHT22;6381;45.748;12.106;2024-03-08T13:19:39;7.80;99.90
12632;DHT22;6381;45.748;12.106;2024-03-08T13:22:10;7.80;99.90
12632;DHT22;6381;45.748;12.106;2024-03-08T13:24:46;7.80;99.90
12632;DHT22;6381;45.748;12.106;2024-03-08T13:27:24;7.90;99.90
12632;DHT22;6381;45.748;12.106;2024-03-08T13:30:11;7.90;99.90
12632;DHT22;6381;45.748;12.106;2024-03-08T13:32:48;7.80;99.90
12632;DHT22;6381;45.748;12.106;2024-03-08T13:35:19;8.10;99.90
12632;DHT22;6381;45.748;12.106;2024-03-08T13:37:57;8.00;99.90
12632;DHT22;6381;45.748;12.106;2024-03-08T13:40:41;7.90;99.90
12632;DHT22;6381;45.748;12.106;2024-03-08T13:43:27;7.90;99.90
12632;DHT22;6381;45.748;12.106;2024-03-08T13:46:06;8.10;99.90
12632;DHT22;6381;45.748;12.106;2024-03-08T13:48:54;8.10;99.90
12632;DHT22;6381;45.748;12.106;2024-03-08T13:51:59;8.00;99.90
12632;DHT22;6381;45.748;12.106;2024-03-08T13:58:08;8.00;99.90
12632;DHT22;6381;45.748;12.106;2024-03-08T14:00:50;8.10;99.90
12632;DHT22;6381;45.748;12.106;2024-03-08T14:03:26;8.10;99.90
12632;DHT22;6381;45.748;12.106;2024-03-08T14:06:25;8.20;99.90
12632;DHT22;6381;45.748;12.106;2024-03-08T14:09:13;8.20;99.90
12632;DHT22;6381;45.748;12.106;2024-03-08T14:11:50;8.20;99.90
12632;DHT22;6381;45.748;12.106;2024-03-08T14:14:30;8.00;99.90
12632;DHT22;6381;45.748;12.106;2024-03-08T14:17:10;8.10;99.90
12632;DHT22;6381;45.748;12.106;2024-03-08T14:19:57;8.10;99.90
12632;DHT22;6381;45.748;12.106;2024-03-08T14:22:40;8.10;99.90
12632;DHT22;6381;45.748;12.106;2024-03-08T14:25:14;8.20;99.90
12632;DHT22;6381;45.748;12.106;2024-03-08T14:27:58;8.20;99.90
12632;DHT22;6381;45.748;12.106;2024-03-08T14:30:36;8.10;99.90
12632;DHT22;6381;45.748;12.106;2024-03-08T14:33:13;7.90;99.90
12632;DHT22;6381;45.748;12.106;2024-03-08T14:35:52;8.10;99.90
12632;DHT22;6381;45.748;12.106;2024-03-08T14:38:27;8.20;99.90
12632;DHT22;6381;45.748;12.106;2024-03-08T14:40:59;8.40;99.90
12632;DHT22;6381;45.748;12.106;2024-03-08T14:43:36;8.20;99.90
12632;DHT22;6381;45.748;12.106;2024-03-08T14:46:14;8.30;99.90
12632;DHT22;6381;45.748;12.106;2024-03-08T14:48:48;8.40;99.90
12632;DHT22;6381;45.748;12.106;2024-03-08T14:51:22;8.20;99.90
12632;DHT22;6381;45.748;12.106;2024-03-08T14:53:56;8.20;99.90
12632;DHT22;6381;45.748;12.106;2024-03-08T14:56:30;8.20;99.90
12632;DHT22;6381;45.748;12.106;2024-03-08T14:59:02;8.10;99.90
12632;DHT22;6381;45.748;12.106;2024-03-08T15:01:42;8.10;99.90
12632;DHT22;6381;45.748;12.106;2024-03-08T15:04:30;8.40;99.90
12632;DHT22;6381;45.748;12.106;2024-03-08T15:07:04;8.50;99.90
12632;DHT22;6381;45.748;12.106;2024-03-08T15:10:08;8.20;99.90
12632;DHT22;6381;45.748;12.106;2024-03-08T15:13:16;8.10;99.90
12632;DHT22;6381;45.748;12.106;2024-03-08T15:15:51;8.20;99.90
12632;DHT22;6381;45.748;12.106;2024-03-08T15:18:30;8.20;99.90
12632;DHT22;6381;45.748;12.106;2024-03-08T15:21:04;8.20;99.90
12632;DHT22;6381;45.748;12.106;2024-03-08T15:23:39;8.20;99.90
12632;DHT22;6381;45.748;12.106;2024-03-08T15:30:37;8.40;99.90
12632;DHT22;6381;45.748;12.106;2024-03-08T15:33:10;8.40;99.90
12632;DHT22;6381;45.748;12.106;2024-03-08T15:35:43;8.40;99.90
12632;DHT22;6381;45.748;12.106;2024-03-08T15:38:28;8.40;99.90
12632;DHT22;6381;45.748;12.106;2024-03-08T15:41:07;8.20;99.90
12632;DHT22;6381;45.748;12.106;2024-03-08T15:44:01;8.20;99.90
12632;DHT22;6381;45.748;12.106;2024-03-08T15:46:55;8.30;99.90
12632;DHT22;6381;45.748;12.106;2024-03-08T15:49:27;8.40;99.90
12632;DHT22;6381;45.748;12.106;2024-03-08T15:52:00;8.40;99.90
12632;DHT22;6381;45.748;12.106;2024-03-08T15:54:54;8.50;99.90
12632;DHT22;6381;45.748;12.106;2024-03-08T15:57:28;8.40;99.90
12632;DHT22;6381;45.748;12.106;2024-03-08T16:00:04;8.30;99.90
12632;DHT22;6381;45.748;12.106;2024-03-08T16:02:53;8.40;99.90
12632;DHT22;6381;45.748;12.106;2024-03-08T16:05:28;8.30;99.90
12632;DHT22;6381;45.748;12.106;2024-03-08T16:08:06;8.20;99.90
12632;DHT22;6381;45.748;12.106;2024-03-08T16:10:54;8.30;99.90
12632;DHT22;6381;45.748;12.106;2024-03-08T16:13:32;8.20;99.90
12632;DHT22;6381;45.748;12.106;2024-03-08T16:16:12;8.20;99.90
12632;DHT22;6381;45.748;12.106;2024-03-08T16:18:52;8.10;99.90
12632;DHT22;6381;45.748;12.106;2024-03-08T16:21:40;8.20;99.90
12632;DHT22;6381;45.748;12.106;2024-03-08T16:24:27;8.20;99.90
12632;DHT22;6381;45.748;12.106;2024-03-08T16:27:08;8.00;99.90
12632;DHT22;6381;45.748;12.106;2024-03-08T16:29:55;8.00;99.90
12632;DHT22;6381;45.748;12.106;2024-03-08T16:32:46;8.30;99.90